Time,TemperatureF,DewpointF,PressureIn,WindDirection,WindDirectionDegrees,WindSpeedMPH,WindSpeedGustMPH,Humidity,HourlyPrecipIn,Conditions,Clouds,dailyrainin,SoftwareType,DateUTC
2013-04-27 00:12:00,70.0,67.0,-100.00,South,179,7.0,14.0,90,0.00,,,0.00,,2013-04-27 05:12:00,
2013-04-27 00:22:00,70.0,67.0,-100.00,South,179,7.0,14.0,90,0.00,,,0.00,,2013-04-27 05:22:00,
2013-04-27 00:32:00,70.0,67.0,-100.00,South,179,7.0,14.0,90,0.00,,,0.00,,2013-04-27 05:32:00,
2013-04-27 00:42:00,70.0,67.0,-100.00,South,179,7.0,14.0,90,0.00,,,0.00,,2013-04-27 05:42:00,
2013-04-27 01:12:00,71.0,68.0,-100.00,South,190,7.0,13.0,90,0.00,,,0.00,,2013-04-27 06:12:00,
2013-04-27 01:22:00,71.0,68.0,-100.00,South,190,7.0,13.0,90,0.00,,,0.00,,2013-04-27 06:22:00,
2013-04-27 01:32:00,71.0,68.0,-100.00,South,190,7.0,13.0,90,0.00,,,0.00,,2013-04-27 06:32:00,
2013-04-27 01:42:00,71.0,68.0,-100.00,South,190,7.0,13.0,90,0.00,,,0.00,,2013-04-27 06:42:00,
2013-04-27 02:11:00,70.0,67.0,-100.00,SSW,201,5.0,8.0,89,0.00,,,0.00,,2013-04-27 07:11:00,
2013-04-27 02:21:00,70.0,67.0,-100.00,SSW,201,5.0,8.0,89,0.00,,,0.00,,2013-04-27 07:21:00,
2013-04-27 02:32:00,70.0,67.0,-100.00,SSW,201,5.0,8.0,89,0.00,,,0.00,,2013-04-27 07:32:00,
2013-04-27 02:42:00,70.0,67.0,-100.00,SSW,201,5.0,8.0,89,0.00,,,0.00,,2013-04-27 07:42:00,
2013-04-27 03:11:00,69.0,67.0,-100.00,South,184,3.0,5.0,92,0.00,,,0.00,,2013-04-27 08:11:00,
2013-04-27 03:21:00,69.0,67.0,-100.00,South,184,3.0,5.0,92,0.00,,,0.00,,2013-04-27 08:21:00,
2013-04-27 03:33:00,69.0,67.0,-100.00,South,184,3.0,5.0,92,0.00,,,0.00,,2013-04-27 08:33:00,
2013-04-27 03:41:00,69.0,67.0,-100.00,South,184,3.0,5.0,92,0.00,,,0.00,,2013-04-27 08:41:00,
2013-04-27 04:11:00,68.0,67.0,-100.00,South,182,4.0,7.0,96,0.00,,,0.00,,2013-04-27 09:11:00,
2013-04-27 04:21:00,68.0,67.0,-100.00,South,182,4.0,7.0,96,0.00,,,0.00,,2013-04-27 09:21:00,
2013-04-27 04:33:00,68.0,67.0,-100.00,South,182,4.0,7.0,96,0.00,,,0.00,,2013-04-27 09:33:00,
2013-04-27 04:42:00,68.0,67.0,-100.00,South,182,4.0,7.0,96,0.00,,,0.00,,2013-04-27 09:42:00,
2013-04-27 05:12:00,68.0,67.0,-100.00,SW,219,3.0,6.0,95,0.00,,,0.00,,2013-04-27 10:12:00,
2013-04-27 05:22:00,68.0,67.0,-100.00,SW,219,3.0,6.0,95,0.00,,,0.00,,2013-04-27 10:22:00,
2013-04-27 05:32:00,68.0,67.0,-100.00,SW,219,3.0,6.0,95,0.00,,,0.00,,2013-04-27 10:32:00,
2013-04-27 05:42:00,68.0,67.0,-100.00,SW,219,3.0,6.0,95,0.00,,,0.00,,2013-04-27 10:42:00,
2013-04-27 06:12:00,68.0,67.0,-100.00,SSW,196,5.0,10.0,95,0.00,,,0.00,,2013-04-27 11:12:00,
2013-04-27 06:22:00,68.0,67.0,-100.00,SSW,196,5.0,10.0,95,0.00,,,0.00,,2013-04-27 11:22:00,
2013-04-27 06:32:00,68.0,67.0,-100.00,SSW,196,5.0,10.0,95,0.00,,,0.00,,2013-04-27 11:32:00,
2013-04-27 06:41:00,68.0,67.0,-100.00,SSW,196,5.0,10.0,95,0.00,,,0.00,,2013-04-27 11:41:00,
2013-04-27 07:11:00,68.0,67.0,-100.00,SSW,203,5.0,8.0,95,0.00,,,0.00,,2013-04-27 12:11:00,
2013-04-27 07:22:00,68.0,67.0,-100.00,SSW,203,5.0,8.0,95,0.00,,,0.00,,2013-04-27 12:22:00,
2013-04-27 07:32:00,68.0,67.0,-100.00,SSW,203,5.0,8.0,95,0.00,,,0.00,,2013-04-27 12:32:00,
2013-04-27 07:42:00,68.0,67.0,-100.00,SSW,203,5.0,8.0,95,0.00,,,0.00,,2013-04-27 12:42:00,
2013-04-27 08:11:00,69.0,67.0,-100.00,SSW,204,6.0,11.0,93,0.00,,,0.00,,2013-04-27 13:11:00,
2013-04-27 08:21:00,69.0,67.0,-100.00,SSW,204,6.0,11.0,93,0.00,,,0.00,,2013-04-27 13:21:00,
2013-04-27 08:32:00,69.0,67.0,-100.00,SSW,204,6.0,11.0,93,0.00,,,0.00,,2013-04-27 13:32:00,
2013-04-27 08:42:00,69.0,67.0,-100.00,SSW,204,6.0,11.0,93,0.00,,,0.00,,2013-04-27 13:42:00,
2013-04-27 09:11:00,71.0,67.0,-100.00,South,179,6.0,10.0,86,0.00,,,0.00,,2013-04-27 14:11:00,
2013-04-27 09:21:00,71.0,67.0,-100.00,South,179,6.0,10.0,86,0.00,,,0.00,,2013-04-27 14:21:00,
2013-04-27 09:32:00,71.0,67.0,-100.00,South,179,6.0,10.0,86,0.00,,,0.00,,2013-04-27 14:32:00,
2013-04-27 09:42:00,71.0,67.0,-100.00,South,179,6.0,10.0,86,0.00,,,0.00,,2013-04-27 14:42:00,
2013-04-27 10:12:00,73.0,66.0,-100.00,SW,223,8.0,13.0,78,0.00,,,0.00,,2013-04-27 15:12:00,
2013-04-27 10:22:00,73.0,66.0,-100.00,SW,223,8.0,13.0,78,0.00,,,0.00,,2013-04-27 15:22:00,
2013-04-27 10:33:00,73.0,66.0,-100.00,SW,223,8.0,13.0,78,0.00,,,0.00,,2013-04-27 15:33:00,
2013-04-27 10:42:00,73.0,66.0,-100.00,SW,223,8.0,13.0,78,0.00,,,0.00,,2013-04-27 15:42:00,
2013-04-27 11:13:00,76.0,63.0,-100.00,SW,220,9.0,14.0,65,0.00,,,0.00,,2013-04-27 16:13:00,
2013-04-27 11:22:00,76.0,63.0,-100.00,SW,220,9.0,14.0,65,0.00,,,0.00,,2013-04-27 16:22:00,
2013-04-27 11:32:00,76.0,63.0,-100.00,SW,220,9.0,14.0,65,0.00,,,0.00,,2013-04-27 16:32:00,
2013-04-27 11:42:00,76.0,63.0,-100.00,SW,220,9.0,14.0,65,0.00,,,0.00,,2013-04-27 16:42:00,
2013-04-27 12:12:00,77.0,63.0,-100.00,SSW,200,8.0,13.0,62,0.00,,,0.00,,2013-04-27 17:12:00,
2013-04-27 12:22:00,77.0,63.0,-100.00,SSW,200,8.0,13.0,62,0.00,,,0.00,,2013-04-27 17:22:00,
2013-04-27 12:32:00,77.0,63.0,-100.00,SSW,200,8.0,13.0,62,0.00,,,0.00,,2013-04-27 17:32:00,
2013-04-27 12:42:00,77.0,63.0,-100.00,SSW,200,8.0,13.0,62,0.00,,,0.00,,2013-04-27 17:42:00,
2013-04-27 13:12:00,80.0,63.0,-100.00,SSW,194,10.0,19.0,57,0.00,,,0.00,,2013-04-27 18:12:00,
2013-04-27 13:22:00,80.0,63.0,-100.00,SSW,194,10.0,19.0,57,0.00,,,0.00,,2013-04-27 18:22:00,
2013-04-27 13:32:00,80.0,63.0,-100.00,SSW,194,10.0,19.0,57,0.00,,,0.00,,2013-04-27 18:32:00,
2013-04-27 13:42:00,80.0,63.0,-100.00,SSW,194,10.0,19.0,57,0.00,,,0.00,,2013-04-27 18:42:00,
2013-04-27 14:11:00,80.0,64.0,-100.00,SSW,205,10.0,16.0,59,0.00,,,0.00,,2013-04-27 19:11:00,
2013-04-27 14:21:00,80.0,64.0,-100.00,SSW,205,10.0,16.0,59,0.00,,,0.00,,2013-04-27 19:21:00,
2013-04-27 14:32:00,80.0,64.0,-100.00,SSW,205,10.0,16.0,59,0.00,,,0.00,,2013-04-27 19:32:00,
2013-04-27 14:42:00,80.0,64.0,-100.00,SSW,205,10.0,16.0,59,0.00,,,0.00,,2013-04-27 19:42:00,
2013-04-27 15:11:00,80.0,64.0,-100.00,SSW,193,10.0,15.0,58,0.00,,,0.00,,2013-04-27 20:11:00,
2013-04-27 15:21:00,80.0,64.0,-100.00,SSW,193,10.0,15.0,58,0.00,,,0.00,,2013-04-27 20:21:00,
2013-04-27 15:32:00,80.0,64.0,-100.00,SSW,193,10.0,15.0,58,0.00,,,0.00,,2013-04-27 20:32:00,
2013-04-27 15:42:00,80.0,64.0,-100.00,SSW,193,10.0,15.0,58,0.00,,,0.00,,2013-04-27 20:42:00,
2013-04-27 16:12:00,82.0,64.0,-100.00,South,181,9.0,14.0,55,0.00,,,0.00,,2013-04-27 21:12:00,
2013-04-27 16:21:00,82.0,64.0,-100.00,South,181,9.0,14.0,55,0.00,,,0.00,,2013-04-27 21:21:00,
2013-04-27 16:33:00,82.0,64.0,-100.00,South,181,9.0,14.0,55,0.00,,,0.00,,2013-04-27 21:33:00,
2013-04-27 16:42:00,82.0,64.0,-100.00,South,181,9.0,14.0,55,0.00,,,0.00,,2013-04-27 21:42:00,
2013-04-27 17:13:00,81.0,62.0,-100.00,SSW,213,10.0,18.0,53,0.00,,,0.00,,2013-04-27 22:13:00,
2013-04-27 17:22:00,81.0,62.0,-100.00,SSW,213,10.0,18.0,53,0.00,,,0.00,,2013-04-27 22:22:00,
2013-04-27 17:32:00,81.0,62.0,-100.00,SSW,213,10.0,18.0,53,0.00,,,0.00,,2013-04-27 22:32:00,
2013-04-27 17:42:00,81.0,62.0,-100.00,SSW,213,10.0,18.0,53,0.00,,,0.00,,2013-04-27 22:42:00,
2013-04-27 18:12:00,79.0,57.0,-100.00,SSW,196,13.0,19.0,47,0.00,,,0.00,,2013-04-27 23:12:00,
2013-04-27 18:22:00,79.0,57.0,-100.00,SSW,196,13.0,19.0,47,0.00,,,0.00,,2013-04-27 23:22:00,
2013-04-27 18:32:00,79.0,57.0,-100.00,SSW,196,13.0,19.0,47,0.00,,,0.00,,2013-04-27 23:32:00,
2013-04-27 18:42:00,79.0,57.0,-100.00,SSW,196,13.0,19.0,47,0.00,,,0.00,,2013-04-27 23:42:00,
2013-04-27 19:12:00,76.0,62.0,-100.00,SW,214,6.0,13.0,62,0.00,,,0.00,,2013-04-28 00:12:00,
2013-04-27 19:21:00,76.0,62.0,-100.00,SW,214,6.0,13.0,62,0.00,,,0.00,,2013-04-28 00:21:00,
2013-04-27 19:32:00,76.0,62.0,-100.00,SW,214,6.0,13.0,62,0.00,,,0.00,,2013-04-28 00:32:00,
2013-04-27 19:42:00,76.0,62.0,-100.00,SW,214,6.0,13.0,62,0.00,,,0.00,,2013-04-28 00:42:00,
2013-04-27 20:11:00,73.0,63.0,-100.00,SSW,212,4.0,7.0,72,0.00,,,0.00,,2013-04-28 01:11:00,
2013-04-27 20:21:00,73.0,63.0,-100.00,SSW,212,4.0,7.0,72,0.00,,,0.00,,2013-04-28 01:21:00,
2013-04-27 20:32:00,73.0,63.0,-100.00,SSW,212,4.0,7.0,72,0.00,,,0.00,,2013-04-28 01:32:00,
2013-04-27 20:42:00,73.0,63.0,-100.00,SSW,212,4.0,7.0,72,0.00,,,0.00,,2013-04-28 01:42:00,
2013-04-27 21:12:00,72.0,65.0,-100.00,WSW,242,3.0,6.0,80,0.00,,,0.00,,2013-04-28 02:12:00,
2013-04-27 21:22:00,72.0,65.0,-100.00,WSW,242,3.0,6.0,80,0.00,,,0.00,,2013-04-28 02:22:00,
2013-04-27 21:32:00,72.0,65.0,-100.00,WSW,242,3.0,6.0,80,0.00,,,0.00,,2013-04-28 02:32:00,
2013-04-27 21:42:00,72.0,65.0,-100.00,WSW,242,3.0,6.0,80,0.00,,,0.00,,2013-04-28 02:42:00,
2013-04-27 22:11:00,70.0,66.0,-100.00,SW,218,3.0,5.0,86,0.00,,,0.00,,2013-04-28 03:11:00,
2013-04-27 22:21:00,70.0,66.0,-100.00,SW,218,3.0,5.0,86,0.00,,,0.00,,2013-04-28 03:21:00,
2013-04-27 22:33:00,70.0,66.0,-100.00,SW,218,3.0,5.0,86,0.00,,,0.00,,2013-04-28 03:33:00,
2013-04-27 22:43:00,70.0,66.0,-100.00,SW,218,3.0,5.0,86,0.00,,,0.00,,2013-04-28 03:43:00,
2013-04-27 23:13:00,70.0,66.0,-100.00,South,189,11.0,18.0,88,0.00,,,0.00,,2013-04-28 04:13:00,
2013-04-27 23:23:00,70.0,66.0,-100.00,South,189,11.0,18.0,88,0.00,,,0.00,,2013-04-28 04:23:00,
2013-04-27 23:32:00,70.0,66.0,-100.00,South,189,11.0,18.0,88,0.00,,,0.00,,2013-04-28 04:32:00,
2013-04-27 23:42:00,70.0,66.0,-100.00,South,189,11.0,18.0,88,0.00,,,0.00,,2013-04-28 04:42:00,